createdAt,value
2023-04-06T00:00:02.025Z,101941.84
2023-04-06T00:02:31.231Z,101946.09
2023-04-06T00:04:59.018Z,101936.63
2023-04-06T00:07:27.154Z,101942.44
2023-04-06T00:09:54.936Z,101939.59
2023-04-06T00:12:22.815Z,101932.81
2023-04-06T00:14:50.545Z,101927.66
2023-04-06T00:17:18.273Z,101928.16
2023-04-06T00:19:47.343Z,101913.94
2023-04-06T00:22:15.113Z,101911.34
2023-04-06T00:24:42.890Z,101910.69
2023-04-06T00:27:10.646Z,101911.84
2023-04-06T00:29:39.668Z,101914.91
2023-04-06T00:32:07.571Z,101937.06
2023-04-06T00:34:35.532Z,101909.78
2023-04-06T00:37:04.848Z,101898.06
2023-04-06T00:39:32.585Z,101905.84
2023-04-06T00:42:01.450Z,101920.28
2023-04-06T00:44:29.233Z,101909.59
2023-04-06T00:46:57.050Z,101908.19
2023-04-06T00:49:24.821Z,101910.06
2023-04-06T00:51:52.633Z,101900.59
2023-04-06T00:54:21.743Z,101897.03
2023-04-06T00:56:49.519Z,101883.75
2023-04-06T00:59:17.451Z,101888.88
2023-04-06T01:01:45.582Z,101890.72
2023-04-06T01:04:13.726Z,101880.91
2023-04-06T01:06:41.877Z,101882.53
2023-04-06T01:09:09.942Z,101875.03
2023-04-06T01:11:39.228Z,101868.91
2023-04-06T01:14:07.082Z,101859.88
2023-04-06T01:16:35.196Z,101868.47
2023-04-06T01:19:03.024Z,101867.59
2023-04-06T01:21:30.981Z,101876.53
2023-04-06T01:24:00.341Z,101877.19
2023-04-06T01:26:30.237Z,101872.84
2023-04-06T01:28:58.158Z,101860.72
2023-04-06T01:31:26.313Z,101861.44
2023-04-06T01:33:54.588Z,101867.44
2023-04-06T01:36:22.749Z,101875.31
2023-04-06T01:38:50.638Z,101863.28
2023-04-06T01:41:19.757Z,101864.88
2023-04-06T01:43:48.009Z,101870.97
2023-04-06T01:46:15.889Z,101861.06
2023-04-06T01:48:43.886Z,101869.00
2023-04-06T01:51:11.656Z,101846.28
2023-04-06T01:53:39.420Z,101860.38
2023-04-06T01:56:08.046Z,101854.59
2023-04-06T01:58:37.371Z,101847.94
2023-04-06T02:01:05.234Z,101863.28
2023-04-06T02:03:33.003Z,101858.69
2023-04-06T02:06:00.808Z,101841.88
2023-04-06T02:08:28.561Z,101856.91
2023-04-06T02:10:56.287Z,101838.31
2023-04-06T02:13:24.070Z,101866.78
2023-04-06T02:15:53.180Z,101858.03
2023-04-06T02:18:21.075Z,101857.00
2023-04-06T02:20:48.927Z,101857.47
2023-04-06T02:23:16.702Z,101843.53
2023-04-06T02:25:44.451Z,101817.69
2023-04-06T02:28:12.173Z,101846.06
2023-04-06T02:30:39.978Z,101848.28
2023-04-06T02:33:09.122Z,101841.00
2023-04-06T02:35:36.991Z,101840.84
2023-04-06T02:38:04.790Z,101825.75
2023-04-06T02:40:32.534Z,101845.13
2023-04-06T02:43:00.311Z,101851.72
2023-04-06T02:45:28.353Z,101849.16
2023-04-06T02:47:56.215Z,101859.34
2023-04-06T02:50:25.429Z,101839.94
2023-04-06T02:52:54.458Z,101848.47
2023-04-06T02:55:22.556Z,101862.34
2023-04-06T02:57:50.538Z,101848.00
2023-04-06T03:00:18.794Z,101854.91
2023-04-06T03:02:46.592Z,101860.38
2023-04-06T03:05:14.442Z,101853.66
2023-04-06T03:07:43.510Z,101838.16
2023-04-06T03:10:11.638Z,101830.94
2023-04-06T03:12:39.535Z,101825.63
2023-04-06T03:15:08.074Z,101825.03
2023-04-06T03:17:35.865Z,101836.59
2023-04-06T03:20:03.684Z,101826.81
2023-04-06T03:22:31.562Z,101838.84
2023-04-06T03:25:03.467Z,101845.88
2023-04-06T03:27:31.578Z,101846.66
2023-04-06T03:29:59.328Z,101836.44
2023-04-06T03:32:27.186Z,101825.84
2023-04-06T03:34:54.935Z,101840.41
2023-04-06T03:37:22.673Z,101843.28
2023-04-06T03:39:50.472Z,101837.91
2023-04-06T03:42:19.619Z,101815.69
2023-04-06T03:44:47.460Z,101834.44
2023-04-06T03:47:15.509Z,101850.69
2023-04-06T03:49:43.296Z,101843.22
2023-04-06T03:52:11.242Z,101844.69
2023-04-06T03:54:39.234Z,101851.19
2023-04-06T03:57:06.969Z,101833.44
2023-04-06T03:59:36.222Z,101831.34
2023-04-06T04:02:04.060Z,101847.13
2023-04-06T04:04:31.878Z,101836.41
2023-04-06T04:06:59.634Z,101831.50
2023-04-06T04:09:29.708Z,101846.81
2023-04-06T04:11:57.683Z,101852.81
2023-04-06T04:14:26.410Z,101862.53
2023-04-06T04:16:55.576Z,101855.78
2023-04-06T04:19:23.297Z,101848.91
2023-04-06T04:21:51.066Z,101835.00
2023-04-06T04:24:18.839Z,101854.97
2023-04-06T04:26:46.591Z,101823.25
2023-04-06T04:29:14.323Z,101846.59
2023-04-06T04:31:42.404Z,101839.41
2023-04-06T04:34:11.552Z,101839.88
2023-04-06T04:36:39.297Z,101856.03
2023-04-06T04:39:07.357Z,101842.25
2023-04-06T04:41:36.452Z,101855.34
2023-04-06T04:44:04.219Z,101864.97
2023-04-06T04:46:31.982Z,101860.69
2023-04-06T04:48:59.698Z,101848.72
2023-04-06T04:51:28.737Z,101842.13
2023-04-06T04:53:56.435Z,101854.91
2023-04-06T04:56:24.133Z,101861.81
2023-04-06T04:58:51.935Z,101851.63
2023-04-06T05:01:19.785Z,101854.84
2023-04-06T05:03:48.171Z,101857.53
2023-04-06T05:06:16.090Z,101863.84
2023-04-06T05:08:45.297Z,101858.03
2023-04-06T05:11:13.381Z,101839.66
2023-04-06T05:13:41.432Z,101858.94
2023-04-06T05:16:09.239Z,101860.50
2023-04-06T05:18:37.461Z,101837.38
2023-04-06T05:21:05.358Z,101853.75
2023-04-06T05:23:33.102Z,101847.03
2023-04-06T05:26:02.297Z,101838.78
2023-04-06T05:28:30.124Z,101838.78
2023-04-06T05:30:57.973Z,101858.59
2023-04-06T05:33:26.347Z,101860.34
2023-04-06T05:35:54.208Z,101854.91
2023-04-06T05:38:22.136Z,101851.78
2023-04-06T05:40:49.880Z,101843.06
2023-04-06T05:43:20.537Z,101837.44
2023-04-06T05:45:49.542Z,101849.34
2023-04-06T05:48:17.258Z,101835.25
2023-04-06T05:50:45.227Z,101827.13
2023-04-06T05:53:12.940Z,101824.09
2023-04-06T05:55:40.715Z,101815.75
2023-04-06T05:58:08.487Z,101824.50
2023-04-06T06:00:37.748Z,101831.41
2023-04-06T06:03:07.010Z,101826.19
2023-04-06T06:05:34.882Z,101816.16
2023-04-06T06:08:03.119Z,101818.75
2023-04-06T06:10:31.145Z,101821.09
2023-04-06T06:12:58.932Z,101807.44
2023-04-06T06:15:27.039Z,101805.63
2023-04-06T06:17:56.237Z,101788.44
2023-04-06T06:20:24.099Z,101785.16
2023-04-06T06:22:51.812Z,101787.78
2023-04-06T06:25:19.981Z,101791.78
2023-04-06T06:27:47.854Z,101792.91
2023-04-06T06:30:16.194Z,101790.47
2023-04-06T06:32:44.024Z,101784.63
2023-04-06T06:35:13.156Z,101782.03
2023-04-06T06:37:40.939Z,101788.88
2023-04-06T06:40:11.256Z,101789.75
2023-04-06T06:42:39.076Z,101784.44
2023-04-06T06:45:09.226Z,101780.75
2023-04-06T06:47:37.011Z,101787.81
2023-04-06T06:50:05.390Z,101780.50
2023-04-06T06:52:34.633Z,101781.66
2023-04-06T06:55:02.372Z,101784.66
2023-04-06T06:57:30.256Z,101772.09
2023-04-06T06:59:57.990Z,101776.25
2023-04-06T07:02:25.796Z,101779.38
2023-04-06T07:04:53.735Z,101777.91
2023-04-06T07:07:21.670Z,101778.19
2023-04-06T07:09:50.909Z,101775.00
2023-04-06T07:12:18.668Z,101773.94
2023-04-06T07:14:46.531Z,101768.41
2023-04-06T07:17:14.465Z,101777.19
2023-04-06T07:19:42.681Z,101768.38
2023-04-06T07:22:10.642Z,101773.84
2023-04-06T07:24:38.483Z,101772.03
2023-04-06T07:27:08.143Z,101758.69
2023-04-06T07:29:35.969Z,101766.53
2023-04-06T07:32:03.882Z,101771.50
2023-04-06T07:34:31.726Z,101777.38
2023-04-06T07:37:01.108Z,101771.34
2023-04-06T07:39:30.495Z,101758.81
2023-04-06T07:41:58.244Z,101769.03
2023-04-06T07:44:27.404Z,101770.81
2023-04-06T07:46:55.149Z,101769.38
2023-04-06T07:49:23.939Z,101776.22
2023-04-06T07:51:51.834Z,101771.31
2023-04-06T07:54:19.543Z,101763.22
2023-04-06T07:56:47.317Z,101758.66
2023-04-06T07:59:15.115Z,101765.22
2023-04-06T08:01:44.219Z,101751.16
2023-04-06T08:04:12.259Z,101745.53
2023-04-06T08:06:41.959Z,101755.16
2023-04-06T08:09:09.753Z,101733.22
2023-04-06T08:11:37.641Z,101744.50
2023-04-06T08:14:05.399Z,101742.22
2023-04-06T08:16:33.104Z,101732.28
2023-04-06T08:19:02.234Z,101750.75
2023-04-06T08:21:30.034Z,101773.88
2023-04-06T08:23:57.751Z,101757.63
2023-04-06T08:26:26.450Z,101741.41
2023-04-06T08:28:54.144Z,101737.47
2023-04-06T08:31:22.108Z,101751.50
2023-04-06T08:33:49.871Z,101772.50
2023-04-06T08:36:23.457Z,101761.06
2023-04-06T08:38:51.828Z,101758.91
2023-04-06T08:41:20.317Z,101758.28
2023-04-06T08:43:51.090Z,101751.53
2023-04-06T08:46:20.535Z,101754.81
2023-04-06T08:48:50.896Z,101738.03
2023-04-06T08:51:21.236Z,101748.81
2023-04-06T08:53:50.895Z,101736.50
2023-04-06T08:56:18.977Z,101752.44
2023-04-06T08:58:47.207Z,101752.88
2023-04-06T09:01:16.609Z,101750.19
2023-04-06T09:03:45.708Z,101745.44
2023-04-06T09:06:15.284Z,101736.50
2023-04-06T09:08:44.649Z,101757.84
2023-04-06T09:11:13.047Z,101762.03
2023-04-06T09:13:47.977Z,101757.59
2023-04-06T09:16:16.341Z,101735.78
2023-04-06T09:18:44.466Z,101743.88
2023-04-06T09:21:13.159Z,101762.00
2023-04-06T09:23:41.352Z,101776.63
2023-04-06T09:26:12.001Z,101771.63
2023-04-06T09:28:50.881Z,101776.41
2023-04-06T09:31:24.690Z,101762.41
2023-04-06T09:33:53.046Z,101764.84
2023-04-06T09:36:21.435Z,101752.63
2023-04-06T09:38:56.403Z,101752.28
2023-04-06T09:41:27.231Z,101762.03
2023-04-06T09:44:04.014Z,101739.69
2023-04-06T09:46:43.410Z,101748.47
2023-04-06T09:49:20.673Z,101749.88
2023-04-06T09:51:55.388Z,101745.09
2023-04-06T09:54:24.700Z,101738.88
2023-04-06T09:57:00.647Z,101731.56
2023-04-06T09:59:38.219Z,101729.13
2023-04-06T10:02:07.778Z,101741.66
2023-04-06T10:04:43.450Z,101724.41
2023-04-06T10:07:14.104Z,101731.72
2023-04-06T10:09:42.170Z,101740.41
2023-04-06T10:12:11.685Z,101731.13
2023-04-06T10:14:39.724Z,101733.63
2023-04-06T10:17:07.642Z,101736.63
2023-04-06T10:19:42.924Z,101721.88
2023-04-06T10:22:14.002Z,101725.53
2023-04-06T10:24:42.299Z,101707.06
2023-04-06T10:27:12.251Z,101729.47
2023-04-06T10:29:47.610Z,101717.25
2023-04-06T10:32:15.533Z,101719.91
2023-04-06T10:34:43.370Z,101714.81
2023-04-06T10:37:19.896Z,101689.25
2023-04-06T10:39:48.534Z,101716.03
2023-04-06T10:42:18.220Z,101696.75
2023-04-06T10:44:46.537Z,101725.44
2023-04-06T10:47:20.908Z,101710.56
2023-04-06T10:49:48.755Z,101710.75
2023-04-06T10:52:16.544Z,101699.53
2023-04-06T10:54:46.946Z,101692.25
2023-04-06T10:57:17.524Z,101701.78
2023-04-06T10:59:47.073Z,101685.94
2023-04-06T11:02:22.684Z,101701.16
2023-04-06T11:04:58.341Z,101696.84
2023-04-06T11:07:27.728Z,101693.25
2023-04-06T11:10:12.343Z,101695.09
2023-04-06T11:12:44.716Z,101685.03
2023-04-06T11:15:12.984Z,101694.34
2023-04-06T11:17:40.838Z,101674.63
2023-04-06T11:20:12.922Z,101674.41
2023-04-06T11:22:51.152Z,101662.53
2023-04-06T11:25:19.193Z,101677.34
2023-04-06T11:27:48.921Z,101662.03
2023-04-06T11:30:17.323Z,101678.84
2023-04-06T11:32:46.610Z,101674.34
2023-04-06T11:35:21.993Z,101677.88
2023-04-06T11:37:51.432Z,101662.81
2023-04-06T11:40:23.644Z,101655.41
2023-04-06T11:42:56.165Z,101663.28
2023-04-06T11:45:24.381Z,101657.13
2023-04-06T11:47:58.824Z,101643.38
2023-04-06T11:50:26.671Z,101665.84
2023-04-06T11:53:02.337Z,101657.75
2023-04-06T11:55:32.283Z,101661.78
2023-04-06T11:58:02.734Z,101645.88
2023-04-06T12:00:35.361Z,101652.50
2023-04-06T12:03:03.237Z,101655.56
2023-04-06T12:05:31.208Z,101648.53
2023-04-06T12:08:01.110Z,101651.13
2023-04-06T12:10:31.376Z,101634.91
2023-04-06T12:12:59.314Z,101631.81
2023-04-06T12:15:28.532Z,101641.38
2023-04-06T12:17:56.266Z,101635.84
2023-04-06T12:20:27.066Z,101633.38
2023-04-06T12:22:55.605Z,101628.09
2023-04-06T12:25:23.343Z,101633.75
2023-04-06T12:27:51.237Z,101624.69
2023-04-06T12:30:19.181Z,101630.63
2023-04-06T12:32:50.905Z,101624.97
2023-04-06T12:35:19.273Z,101623.66
2023-04-06T12:37:46.956Z,101629.63
2023-04-06T12:40:15.787Z,101629.06
2023-04-06T12:42:43.747Z,101623.06
2023-04-06T12:45:12.449Z,101611.81
2023-04-06T12:47:40.414Z,101615.47
2023-04-06T12:50:10.530Z,101611.16
2023-04-06T12:52:38.311Z,101625.50
2023-04-06T12:55:07.144Z,101611.91
2023-04-06T12:57:34.883Z,101614.63
2023-04-06T13:00:02.809Z,101622.56
2023-04-06T13:02:32.014Z,101612.94
2023-04-06T13:04:59.939Z,101615.16
2023-04-06T13:07:29.109Z,101615.84
2023-04-06T13:09:56.869Z,101617.25
2023-04-06T13:12:24.709Z,101615.75
2023-04-06T13:14:53.572Z,101626.56
2023-04-06T13:17:22.061Z,101607.50
2023-04-06T13:19:49.843Z,101617.38
2023-04-06T13:22:17.964Z,101606.16
2023-04-06T13:24:47.314Z,101601.38
2023-04-06T13:27:15.373Z,101611.59
2023-04-06T13:29:43.152Z,101613.28
2023-04-06T13:32:11.547Z,101599.66
2023-04-06T13:34:39.288Z,101599.16
2023-04-06T13:37:06.986Z,101604.53
2023-04-06T13:39:34.766Z,101592.34
2023-04-06T13:42:04.134Z,101597.94
2023-04-06T13:44:32.028Z,101599.25
2023-04-06T13:47:00.637Z,101585.81
2023-04-06T13:49:28.748Z,101588.66
2023-04-06T13:51:56.500Z,101592.78
2023-04-06T13:54:24.085Z,101585.75
2023-04-06T13:56:53.433Z,101578.50
2023-04-06T13:59:22.645Z,101577.38
2023-04-06T14:01:50.781Z,101573.41
2023-04-06T14:04:18.526Z,101577.69
2023-04-06T14:06:47.266Z,101576.44
2023-04-06T14:09:14.909Z,101574.06
2023-04-06T14:11:42.515Z,101566.53
2023-04-06T14:14:10.668Z,101561.78
2023-04-06T14:16:39.729Z,101579.47
2023-04-06T14:19:07.353Z,101572.16
2023-04-06T14:21:35.016Z,101576.56
2023-04-06T14:24:02.740Z,101561.53
2023-04-06T14:26:30.393Z,101567.84
2023-04-06T14:28:58.067Z,101551.25
2023-04-06T14:31:25.824Z,101548.50
2023-04-06T14:33:54.975Z,101541.13
2023-04-06T14:36:37.209Z,101520.94
2023-04-06T14:39:06.805Z,101558.03
2023-04-06T14:41:35.677Z,101565.50
2023-04-06T14:44:03.865Z,101567.50
2023-04-06T14:46:31.542Z,101554.97
2023-04-06T14:49:00.685Z,101556.97
2023-04-06T14:51:29.166Z,101549.66
2023-04-06T14:53:58.504Z,101558.63
2023-04-06T14:56:26.579Z,101534.38
2023-04-06T14:58:54.676Z,101552.16
2023-04-06T15:01:22.464Z,101552.31
2023-04-06T15:03:50.423Z,101551.84
2023-04-06T15:06:21.473Z,101554.34
2023-04-06T15:08:50.719Z,101548.72
2023-04-06T15:11:18.429Z,101541.56
2023-04-06T15:13:46.240Z,101549.25
2023-04-06T15:16:15.568Z,101539.72
2023-04-06T15:18:43.258Z,101541.22
2023-04-06T15:21:12.714Z,101543.25
2023-04-06T15:23:41.664Z,101546.19
2023-04-06T15:26:09.332Z,101540.03
2023-04-06T15:28:37.019Z,101541.91
2023-04-06T15:31:07.157Z,101547.47
2023-04-06T15:33:34.951Z,101553.84
2023-04-06T15:36:08.625Z,101543.94
2023-04-06T15:38:36.282Z,101542.44
2023-04-06T15:41:05.441Z,101539.88
2023-04-06T15:43:33.084Z,101529.16
2023-04-06T15:46:01.443Z,101547.03
2023-04-06T15:48:31.876Z,101554.00
2023-04-06T15:50:59.993Z,101523.81
2023-04-06T15:53:27.844Z,101531.56
2023-04-06T15:55:59.954Z,101537.13
2023-04-06T15:58:28.932Z,101544.50
2023-04-06T16:00:56.671Z,101546.31
2023-04-06T16:03:24.553Z,101552.88
2023-04-06T16:08:26.952Z,101547.59
2023-04-06T16:10:54.596Z,101561.66
2023-04-06T16:13:22.185Z,101545.06
2023-04-06T16:15:52.412Z,101543.69
2023-04-06T16:18:20.373Z,101550.91
2023-04-06T16:20:47.991Z,101550.59
2023-04-06T16:23:15.638Z,101549.03
2023-04-06T16:25:43.332Z,101555.56
2023-04-06T16:28:11.000Z,101560.69
2023-04-06T16:30:38.669Z,101561.63
2023-04-06T16:33:07.856Z,101544.53
2023-04-06T16:35:35.521Z,101552.13
2023-04-06T16:38:03.169Z,101547.16
2023-04-06T16:40:31.128Z,101552.38
2023-04-06T16:42:59.444Z,101552.09
2023-04-06T16:45:27.111Z,101557.03
2023-04-06T16:47:54.778Z,101546.47
2023-04-06T16:50:23.754Z,101544.97
2023-04-06T16:52:51.386Z,101550.53
2023-04-06T16:55:19.052Z,101545.09
2023-04-06T16:57:49.087Z,101559.59
2023-04-06T17:00:17.915Z,101548.91
2023-04-06T17:02:48.040Z,101563.22
2023-04-06T17:05:18.056Z,101547.69
2023-04-06T17:07:46.977Z,101552.16
2023-04-06T17:10:14.544Z,101560.50
2023-04-06T17:12:42.151Z,101564.56
2023-04-06T17:15:10.565Z,101561.84
2023-04-06T17:17:39.007Z,101568.81
2023-04-06T17:20:07.938Z,101556.63
2023-04-06T17:22:36.224Z,101556.84
2023-04-06T17:25:06.778Z,101555.50
2023-04-06T17:27:34.493Z,101566.06
2023-04-06T17:30:06.367Z,101569.69
2023-04-06T17:32:35.024Z,101566.50
2023-04-06T17:35:02.820Z,101567.63
2023-04-06T17:37:30.532Z,101570.47
2023-04-06T17:39:58.945Z,101584.16
2023-04-06T17:42:27.950Z,101576.66
2023-04-06T17:44:55.581Z,101573.28
2023-04-06T17:47:25.680Z,101575.31
2023-04-06T17:49:53.345Z,101580.03
2023-04-06T17:52:21.004Z,101595.13
2023-04-06T17:54:50.631Z,101593.19
2023-04-06T17:57:18.222Z,101605.81
2023-04-06T17:59:47.246Z,101596.81
2023-04-06T18:02:15.039Z,101605.69
2023-04-06T18:04:44.167Z,101581.69
2023-04-06T18:07:12.381Z,101616.59
2023-04-06T18:09:40.778Z,101609.28
2023-04-06T18:12:08.561Z,101611.53
2023-04-06T18:14:36.596Z,101615.81
2023-04-06T18:17:05.571Z,101624.19
2023-04-06T18:19:34.400Z,101626.19
2023-04-06T18:22:01.992Z,101617.84
2023-04-06T18:24:41.531Z,101630.50
2023-04-06T18:27:10.522Z,101616.00
2023-04-06T18:29:38.138Z,101623.25
2023-04-06T18:32:07.561Z,101621.31
2023-04-06T18:34:35.260Z,101630.97
2023-04-06T18:37:03.281Z,101627.94
2023-04-06T18:39:31.326Z,101634.03
2023-04-06T18:41:59.502Z,101624.28
2023-04-06T18:44:27.110Z,101642.75
2023-04-06T18:46:55.625Z,101628.41
2023-04-06T18:49:24.812Z,101639.34
2023-04-06T18:51:53.601Z,101633.94
2023-04-06T18:54:21.419Z,101639.44
2023-04-06T18:56:49.318Z,101636.84
2023-04-06T18:59:17.777Z,101645.88
2023-04-06T19:01:46.836Z,101640.31
2023-04-06T19:04:14.800Z,101642.09
2023-04-06T19:06:44.159Z,101649.81
2023-04-06T19:09:11.784Z,101654.06
2023-04-06T19:11:39.619Z,101657.56
2023-04-06T19:14:07.263Z,101658.63
2023-04-06T19:16:40.757Z,101649.13
2023-04-06T19:19:08.587Z,101657.66
2023-04-06T19:21:36.263Z,101658.63
2023-04-06T19:24:06.038Z,101656.84
2023-04-06T19:26:34.152Z,101649.03
2023-04-06T19:29:01.855Z,101662.78
2023-04-06T19:31:29.515Z,101664.56
2023-04-06T19:33:57.363Z,101657.84
2023-04-06T19:36:25.041Z,101660.25
2023-04-06T19:38:52.785Z,101657.16
2023-04-06T19:41:22.337Z,101656.22
2023-04-06T19:43:49.995Z,101669.06
2023-04-06T19:46:17.719Z,101658.94
2023-04-06T19:48:45.416Z,101658.09
2023-04-06T19:51:13.455Z,101674.41
2023-04-06T19:53:41.217Z,101666.59
2023-04-06T19:56:10.083Z,101659.97
2023-04-06T19:58:40.036Z,101664.25
2023-04-06T20:01:07.711Z,101678.66
2023-04-06T20:03:36.463Z,101667.69
2023-04-06T20:06:04.414Z,101654.78
2023-04-06T20:08:32.057Z,101668.56
2023-04-06T20:11:02.375Z,101664.34
2023-04-06T20:13:30.444Z,101659.22
2023-04-06T20:16:00.472Z,101660.88
2023-04-06T20:18:28.269Z,101676.38
2023-04-06T20:20:56.197Z,101666.13
2023-04-06T20:23:24.170Z,101671.31
2023-04-06T20:25:51.783Z,101671.34
2023-04-06T20:28:19.577Z,101677.28
2023-04-06T20:30:51.479Z,101653.28
2023-04-06T20:33:20.727Z,101668.75
2023-04-06T20:35:48.341Z,101654.13
2023-04-06T20:38:17.664Z,101675.59
2023-04-06T20:40:51.839Z,101666.22
2023-04-06T20:43:20.559Z,101663.59
2023-04-06T20:45:48.577Z,101668.81
2023-04-06T20:48:16.502Z,101662.75
2023-04-06T20:50:55.728Z,101674.78
2023-04-06T20:53:23.903Z,101662.78
2023-04-06T20:55:51.577Z,101674.81
2023-04-06T20:58:20.828Z,101658.47
2023-04-06T21:00:49.594Z,101667.06
2023-04-06T21:03:17.656Z,101678.25
2023-04-06T21:05:52.732Z,101637.78
2023-04-06T21:08:20.667Z,101662.75
2023-04-06T21:10:48.300Z,101663.59
2023-04-06T21:13:16.103Z,101661.03
2023-04-06T21:15:44.114Z,101642.09
2023-04-06T21:18:12.345Z,101655.84
2023-04-06T21:20:40.198Z,101658.47
2023-04-06T21:23:09.401Z,101642.09
2023-04-06T21:25:37.696Z,101649.00
2023-04-06T21:28:06.055Z,101647.25
2023-04-06T21:30:36.980Z,101651.56
2023-04-06T21:33:04.719Z,101651.56
2023-04-06T21:35:32.660Z,101652.44
2023-04-06T21:38:00.428Z,101647.25
2023-04-06T21:40:29.426Z,101650.69
2023-04-06T21:42:57.029Z,101654.16
2023-04-06T21:45:24.647Z,101661.03
2023-04-06T21:47:52.263Z,101648.97
2023-04-06T21:50:20.140Z,101647.19
2023-04-06T21:52:47.725Z,101659.31
2023-04-06T21:55:15.641Z,101653.22
2023-04-06T21:57:45.027Z,101647.16
2023-04-06T22:00:13.800Z,101650.63
2023-04-06T22:02:41.618Z,101645.47
2023-04-06T22:05:10.110Z,101646.31
2023-04-06T22:07:37.737Z,101640.19
2023-04-06T22:10:06.124Z,101643.47
2023-04-06T22:12:33.831Z,101640.16
2023-04-06T22:15:03.057Z,101650.53
2023-04-06T22:17:30.999Z,101648.94
2023-04-06T22:19:58.682Z,101647.88
2023-04-06T22:22:26.328Z,101649.66
2023-04-06T22:24:54.032Z,101633.22
2023-04-06T22:27:21.608Z,101650.56
2023-04-06T22:29:49.246Z,101614.28
2023-04-06T22:32:18.346Z,101642.63
2023-04-06T22:34:46.381Z,101640.84
2023-04-06T22:37:14.010Z,101644.25
2023-04-06T22:39:41.656Z,101641.47
2023-04-06T22:42:09.288Z,101652.72
2023-04-06T22:44:36.897Z,101647.56
2023-04-06T22:47:04.539Z,101641.44
2023-04-06T22:49:33.545Z,101662.16
2023-04-06T22:52:01.270Z,101653.44
2023-04-06T22:54:28.921Z,101645.53
2023-04-06T22:56:56.650Z,101657.50
2023-04-06T22:59:24.468Z,101664.53
2023-04-06T23:01:52.233Z,101666.09
2023-04-06T23:04:20.865Z,101670.19
2023-04-06T23:06:50.254Z,101658.16
2023-04-06T23:09:17.889Z,101659.84
2023-04-06T23:11:45.871Z,101665.94
2023-04-06T23:14:13.524Z,101674.69
2023-04-06T23:16:41.435Z,101665.84
2023-04-06T23:19:09.109Z,101670.16
2023-04-06T23:21:36.753Z,101676.47
2023-04-06T23:24:06.310Z,101671.72
2023-04-06T23:26:33.935Z,101675.16
2023-04-06T23:29:01.655Z,101676.91
2023-04-06T23:31:29.350Z,101673.44
2023-04-06T23:33:56.990Z,101677.00
2023-04-06T23:36:24.726Z,101670.13
2023-04-06T23:38:52.347Z,101666.47
2023-04-06T23:41:22.481Z,101675.47
2023-04-06T23:43:50.445Z,101657.84
2023-04-06T23:46:18.744Z,101670.91
2023-04-06T23:48:46.717Z,101654.31
2023-04-06T23:51:14.410Z,101663.69
2023-04-06T23:53:42.201Z,101681.22
2023-04-06T23:56:10.015Z,101663.22
2023-04-06T23:58:39.071Z,101660.47
